createdAt,value
2018-09-12T00:05:04.461Z,7.09
2018-09-12T00:10:59.437Z,7.66
2018-09-12T00:16:54.431Z,8.07
2018-09-12T00:22:49.478Z,7.04
2018-09-12T00:28:44.442Z,6.67
2018-09-12T00:34:39.480Z,7.78
2018-09-12T00:40:34.463Z,7.39
2018-09-12T00:46:29.443Z,7.94
2018-09-12T00:52:24.458Z,8.03
2018-09-12T00:58:19.454Z,7.17
2018-09-12T01:04:14.480Z,6.59
2018-09-12T01:10:09.468Z,6.9
2018-09-12T01:16:04.505Z,6.36
2018-09-12T01:21:59.478Z,7.1
2018-09-12T01:27:54.477Z,6.89
2018-09-12T01:33:49.482Z,7.54
2018-09-12T01:39:44.468Z,6.29
2018-09-12T01:45:39.534Z,7.01
2018-09-12T01:51:34.486Z,7.6
2018-09-12T01:57:29.493Z,7.52
2018-09-12T02:03:24.531Z,6.9
2018-09-12T02:09:19.508Z,6.97
2018-09-12T02:15:14.492Z,6.81
2018-09-12T02:21:09.496Z,6.35
2018-09-12T02:27:04.537Z,7.65
2018-09-12T02:32:59.522Z,8.47
2018-09-12T02:38:54.516Z,9.07
2018-09-12T02:44:49.526Z,9.06
2018-09-12T02:50:44.541Z,10.59
2018-09-12T02:56:39.518Z,9.31
2018-09-12T03:02:34.546Z,9.25
2018-09-12T03:08:29.529Z,9.14
2018-09-12T03:14:24.560Z,8.71
2018-09-12T03:20:19.568Z,9.6
2018-09-12T03:26:14.559Z,8.28
2018-09-12T03:32:09.567Z,9.55
2018-09-12T03:38:04.557Z,9.92
2018-09-12T03:43:59.570Z,8.51
2018-09-12T03:49:54.575Z,8.17
2018-09-12T03:55:49.605Z,8.64
2018-09-12T04:01:44.570Z,7.88
2018-09-12T04:07:39.549Z,8.32
2018-09-12T04:13:34.582Z,7.33
2018-09-12T04:19:29.584Z,8.12
2018-09-12T04:25:24.579Z,8.03
2018-09-12T04:31:19.585Z,7.86
2018-09-12T04:37:14.566Z,7.03
2018-09-12T04:43:09.587Z,7.13
2018-09-12T04:49:04.611Z,7.89
2018-09-12T04:54:59.637Z,8.21
2018-09-12T05:00:54.617Z,8.71
2018-09-12T05:06:49.691Z,8.14
2018-09-12T05:12:44.589Z,9.18
2018-09-12T05:18:39.619Z,9.86
2018-09-12T05:24:34.624Z,9.18
2018-09-12T05:30:29.641Z,9.02
2018-09-12T05:36:24.660Z,8.42
2018-09-12T05:42:19.635Z,8.7
2018-09-12T05:48:14.648Z,7.99
2018-09-12T05:54:09.631Z,7.67
2018-09-12T06:00:04.796Z,16.9
2018-09-12T06:05:59.648Z,13.73
2018-09-12T06:11:54.678Z,12.72
2018-09-12T06:17:49.643Z,12.79
2018-09-12T06:23:44.657Z,12.25
2018-09-12T06:29:39.681Z,11.18
2018-09-12T06:35:34.665Z,11.02
2018-09-12T06:41:29.665Z,11.27
2018-09-12T06:47:24.686Z,13.8
2018-09-12T06:53:19.668Z,13.97
2018-09-12T06:59:14.668Z,13.15
2018-09-12T07:05:09.683Z,14.2
2018-09-12T07:11:04.747Z,12.11
2018-09-12T07:16:59.704Z,11.3
2018-09-12T07:22:54.700Z,10.04
2018-09-12T07:28:49.704Z,8.87
2018-09-12T07:34:44.732Z,7.6
2018-09-12T07:40:39.719Z,6.57
2018-09-12T07:46:34.735Z,6.87
2018-09-12T07:52:29.712Z,5.74
2018-09-12T07:58:24.718Z,5.74
2018-09-12T08:04:19.703Z,5.47
2018-09-12T08:10:14.761Z,5.54
2018-09-12T08:16:09.743Z,5.02
2018-09-12T08:22:04.702Z,5.71
2018-09-12T08:27:59.726Z,7
2018-09-12T08:33:54.721Z,7.33
2018-09-12T08:39:49.735Z,6.12
2018-09-12T08:45:44.774Z,6.57
2018-09-12T08:51:39.736Z,6
2018-09-12T08:57:34.746Z,6.17
2018-09-12T09:03:29.763Z,6.83
2018-09-12T09:09:24.787Z,6.52
2018-09-12T09:15:19.745Z,6.02
2018-09-12T09:21:14.809Z,6.27
2018-09-12T09:27:09.789Z,8.08
2018-09-12T09:33:04.804Z,9.08
2018-09-12T09:38:59.768Z,10.65
2018-09-12T09:44:54.807Z,8.33
2018-09-12T09:50:49.834Z,6.76
2018-09-12T09:56:44.769Z,6.65
2018-09-12T10:02:39.801Z,5.88
2018-09-12T10:08:34.805Z,6.13
2018-09-12T10:14:29.823Z,5.99
2018-09-12T10:20:24.795Z,6.13
2018-09-12T10:26:19.829Z,5.4
2018-09-12T10:32:14.821Z,5.6
2018-09-12T10:38:09.800Z,5.33
2018-09-12T10:44:04.814Z,5.37
2018-09-12T10:49:59.808Z,4.63
2018-09-12T10:55:54.804Z,4.33
2018-09-12T11:01:49.826Z,4.16
2018-09-12T11:07:44.908Z,5.01
2018-09-12T11:13:39.833Z,5.39
2018-09-12T11:19:34.843Z,4.28
2018-09-12T11:25:29.850Z,2.75
2018-09-12T11:31:24.867Z,3.66
2018-09-12T11:37:19.845Z,4
2018-09-12T11:43:14.865Z,3.75
2018-09-12T11:49:09.907Z,3.27
2018-09-12T11:55:04.905Z,2.42
2018-09-12T12:00:59.851Z,3.28
2018-09-12T12:06:54.896Z,3.04
2018-09-12T12:12:49.854Z,3.37
2018-09-12T12:18:44.866Z,2.63
2018-09-12T12:24:39.867Z,2.61
2018-09-12T12:30:34.920Z,2.77
2018-09-12T12:36:29.953Z,2.21
2018-09-12T12:42:24.925Z,1.98
2018-09-12T12:48:19.879Z,2.33
2018-09-12T12:54:14.879Z,2.21
2018-09-12T13:00:09.952Z,1.99
2018-09-12T13:06:04.921Z,1.86
2018-09-12T13:11:59.897Z,2.71
2018-09-12T13:17:54.934Z,1.89
2018-09-12T13:23:49.920Z,1.8
2018-09-12T13:29:44.907Z,2.25
2018-09-12T13:35:39.919Z,2.22
2018-09-12T13:41:34.937Z,2.19
2018-09-12T13:47:29.946Z,4.77
2018-09-12T13:53:25.011Z,3.97
2018-09-12T13:59:19.956Z,4.17
2018-09-12T14:05:14.978Z,4.63
2018-09-12T14:11:09.973Z,4.39
2018-09-12T14:17:04.951Z,4.19
2018-09-12T14:22:59.971Z,3.77
2018-09-12T14:28:54.954Z,3.65
2018-09-12T14:34:49.946Z,3.98
2018-09-12T14:40:44.948Z,3.38
2018-09-12T14:46:39.963Z,2.97
2018-09-12T14:52:34.958Z,2.96
2018-09-12T14:58:29.981Z,3.02
2018-09-12T15:04:24.979Z,3
2018-09-12T15:10:20.052Z,2.56
2018-09-12T15:16:14.986Z,2.24
2018-09-12T15:22:10.000Z,2.35
2018-09-12T15:28:05.012Z,2.95
2018-09-12T15:34:00.026Z,2.98
2018-09-12T15:39:54.990Z,3.21
2018-09-12T15:45:50.006Z,3.05
2018-09-12T15:51:45.003Z,3.14
2018-09-12T15:57:40.103Z,3.26
2018-09-12T16:03:35.050Z,6.71
2018-09-12T16:09:30.006Z,21.1
2018-09-12T16:15:25.028Z,28.34
2018-09-12T16:21:20.024Z,29.78
2018-09-12T16:27:15.032Z,12.44
2018-09-12T16:33:10.047Z,4.74
2018-09-12T16:39:05.026Z,3.99
2018-09-12T16:45:00.054Z,3.77
2018-09-12T16:50:55.037Z,3.57
2018-09-12T16:56:50.124Z,3.82
2018-09-12T17:02:45.083Z,4.37
2018-09-12T17:08:40.041Z,8.01
2018-09-12T17:14:35.087Z,4.03
2018-09-12T17:20:30.076Z,3.78
2018-09-12T17:26:25.075Z,4.44
2018-09-12T17:32:20.069Z,5.55
2018-09-12T17:38:15.076Z,5.61
2018-09-12T17:44:10.091Z,5.95
2018-09-12T17:50:05.118Z,5.94
2018-09-12T17:56:00.183Z,5.65
2018-09-12T18:01:55.149Z,5.73
2018-09-12T18:07:50.135Z,5.99
2018-09-12T18:13:45.093Z,5.02
2018-09-12T18:19:40.107Z,4.7
2018-09-12T18:25:35.099Z,5.37
2018-09-12T18:31:30.114Z,4.2
2018-09-12T18:37:25.115Z,4.44
2018-09-12T18:43:20.154Z,4.36
2018-09-12T18:49:15.156Z,4.97
2018-09-12T18:55:10.145Z,4.72
2018-09-12T19:01:05.131Z,5.13
2018-09-12T19:07:00.280Z,6.07
2018-09-12T19:12:55.169Z,5.1
2018-09-12T19:18:50.147Z,5.39
2018-09-12T19:24:45.141Z,5.63
2018-09-12T19:30:40.182Z,5.88
2018-09-12T19:36:35.169Z,4.92
2018-09-12T19:42:30.143Z,7.06
2018-09-12T19:48:25.157Z,6.2
2018-09-12T19:54:20.192Z,5.89
2018-09-12T20:00:15.248Z,6
2018-09-12T20:06:10.193Z,7.13
2018-09-12T20:12:05.191Z,6.4
2018-09-12T20:18:00.195Z,7.11
2018-09-12T20:23:55.280Z,6.86
2018-09-12T20:29:50.245Z,7.59
2018-09-12T20:35:45.307Z,7.83
2018-09-12T20:41:40.203Z,6.91
2018-09-12T20:47:35.205Z,7.54
2018-09-12T20:53:30.288Z,7.58
2018-09-12T20:59:25.223Z,10.41
2018-09-12T21:05:20.255Z,8.4
2018-09-12T21:11:15.203Z,8.95
2018-09-12T21:17:10.227Z,8.43
2018-09-12T21:23:05.223Z,8.51
2018-09-12T21:29:00.237Z,9.14
2018-09-12T21:34:55.213Z,9.71
2018-09-12T21:40:50.232Z,9.59
2018-09-12T21:46:45.234Z,9.45
2018-09-12T21:52:40.276Z,10.13
2018-09-12T21:58:35.253Z,11.58
2018-09-12T22:04:30.295Z,11.19
2018-09-12T22:10:25.235Z,11.07
2018-09-12T22:16:20.245Z,10.36
2018-09-12T22:22:15.269Z,10.76
2018-09-12T22:28:10.276Z,10.92
2018-09-12T22:34:05.293Z,10.8
2018-09-12T22:40:00.312Z,10.56
2018-09-12T22:45:55.255Z,11.96
2018-09-12T22:51:50.336Z,11.28
2018-09-12T22:57:45.294Z,12.53
2018-09-12T23:03:40.285Z,11.24
2018-09-12T23:09:35.332Z,11.79
2018-09-12T23:15:30.301Z,10.89
2018-09-12T23:21:25.299Z,11.98
2018-09-12T23:27:20.319Z,11.54
2018-09-12T23:33:15.293Z,10.76
2018-09-12T23:39:10.297Z,11.44
2018-09-12T23:45:05.317Z,12.03
2018-09-12T23:51:00.375Z,11.11
2018-09-12T23:56:55.338Z,10.99
